sensor_id;sensor_type;location;lat;lon;timestamp;pressure;altitude;pressure_sealevel;temperature;humidity
69772;BME280;57046;45.988;18.664;2023-06-10T00:00:38;100165.72;;;21.10;91.53
69772;BME280;57046;45.988;18.664;2023-06-10T00:03:04;100167.28;;;21.04;92.39
69772;BME280;57046;45.988;18.664;2023-06-10T00:05:29;100162.97;;;20.96;93.22
69772;BME280;57046;45.988;18.664;2023-06-10T00:07:54;100171.63;;;20.98;92.94
69772;BME280;57046;45.988;18.664;2023-06-10T00:10:20;100179.13;;;20.83;94.09
69772;BME280;57046;45.988;18.664;2023-06-10T00:12:45;100170.50;;;20.77;93.92
69772;BME280;57046;45.988;18.664;2023-06-10T00:15:10;100168.94;;;20.66;94.94
69772;BME280;57046;45.988;18.664;2023-06-10T00:17:36;100164.22;;;20.70;94.75
69772;BME280;57046;45.988;18.664;2023-06-10T00:20:01;100155.63;;;20.71;94.62
69772;BME280;57046;45.988;18.664;2023-06-10T00:22:27;100156.00;;;20.59;95.30
69772;BME280;57046;45.988;18.664;2023-06-10T00:24:52;100166.63;;;20.61;95.52
69772;BME280;57046;45.988;18.664;2023-06-10T00:27:17;100148.97;;;20.55;94.55
69772;BME280;57046;45.988;18.664;2023-06-10T00:29:42;100168.56;;;20.64;94.90
69772;BME280;57046;45.988;18.664;2023-06-10T00:32:09;100179.94;;;20.69;93.84
69772;BME280;57046;45.988;18.664;2023-06-10T00:34:34;100181.88;;;20.69;93.33
69772;BME280;57046;45.988;18.664;2023-06-10T00:36:59;100169.34;;;20.64;92.41
69772;BME280;57046;45.988;18.664;2023-06-10T00:39:25;100177.19;;;20.62;92.71
69772;BME280;57046;45.988;18.664;2023-06-10T00:41:50;100175.66;;;20.51;93.28
69772;BME280;57046;45.988;18.664;2023-06-10T00:44:16;100179.94;;;20.55;93.76
69772;BME280;57046;45.988;18.664;2023-06-10T00:46:42;100176.44;;;20.55;93.48
69772;BME280;57046;45.988;18.664;2023-06-10T00:49:07;100169.38;;;20.54;93.47
69772;BME280;57046;45.988;18.664;2023-06-10T00:51:34;100168.19;;;20.48;93.57
69772;BME280;57046;45.988;18.664;2023-06-10T00:53:59;100176.44;;;20.44;93.74
69772;BME280;57046;45.988;18.664;2023-06-10T00:56:24;100178.41;;;20.40;93.54
69772;BME280;57046;45.988;18.664;2023-06-10T00:58:50;100174.06;;;20.39;93.17
69772;BME280;57046;45.988;18.664;2023-06-10T01:01:15;100181.53;;;20.42;92.62
69772;BME280;57046;45.988;18.664;2023-06-10T01:03:41;100174.84;;;20.47;92.61
69772;BME280;57046;45.988;18.664;2023-06-10T01:06:18;100181.50;;;20.35;92.61
69772;BME280;57046;45.988;18.664;2023-06-10T01:08:55;100177.22;;;20.30;92.43
69772;BME280;57046;45.988;18.664;2023-06-10T01:11:27;100181.88;;;20.16;92.28
69772;BME280;57046;45.988;18.664;2023-06-10T01:13:55;100152.84;;;19.76;92.94
69772;BME280;57046;45.988;18.664;2023-06-10T01:16:21;100179.13;;;19.98;92.63
69772;BME280;57046;45.988;18.664;2023-06-10T01:18:47;100183.03;;;20.08;92.28
69772;BME280;57046;45.988;18.664;2023-06-10T01:21:22;100177.16;;;20.06;93.06
69772;BME280;57046;45.988;18.664;2023-06-10T01:23:48;100183.81;;;20.05;92.72
69772;BME280;57046;45.988;18.664;2023-06-10T01:26:14;100184.63;;;20.05;92.13
69772;BME280;57046;45.988;18.664;2023-06-10T01:28:52;100178.72;;;19.93;92.86
69772;BME280;57046;45.988;18.664;2023-06-10T01:33:54;100190.47;;;19.90;95.17
69772;BME280;57046;45.988;18.664;2023-06-10T01:36:22;100201.44;;;19.90;95.58
69772;BME280;57046;45.988;18.664;2023-06-10T01:38:49;100189.66;;;19.82;94.12
69772;BME280;57046;45.988;18.664;2023-06-10T01:41:18;100193.56;;;19.81;93.41
69772;BME280;57046;45.988;18.664;2023-06-10T01:43:45;100186.91;;;19.71;93.75
69772;BME280;57046;45.988;18.664;2023-06-10T01:46:11;100186.91;;;19.71;94.06
69772;BME280;57046;45.988;18.664;2023-06-10T01:48:37;100182.56;;;19.67;93.73
69772;BME280;57046;45.988;18.664;2023-06-10T01:51:03;100176.31;;;19.63;94.51
69772;BME280;57046;45.988;18.664;2023-06-10T01:53:28;100179.03;;;19.59;95.20
69772;BME280;57046;45.988;18.664;2023-06-10T01:55:54;100179.44;;;19.65;94.09
69772;BME280;57046;45.988;18.664;2023-06-10T01:58:19;100177.88;;;19.64;93.82
69772;BME280;57046;45.988;18.664;2023-06-10T02:00:45;100178.25;;;19.59;93.74
69772;BME280;57046;45.988;18.664;2023-06-10T02:03:10;100172.78;;;19.62;94.50
69772;BME280;57046;45.988;18.664;2023-06-10T02:05:35;100182.97;;;19.62;94.29
69772;BME280;57046;45.988;18.664;2023-06-10T02:08:01;100169.63;;;19.57;93.92
69772;BME280;57046;45.988;18.664;2023-06-10T02:10:26;100172.75;;;19.55;94.35
69772;BME280;57046;45.988;18.664;2023-06-10T02:12:51;100167.25;;;19.52;93.46
69772;BME280;57046;45.988;18.664;2023-06-10T02:15:17;100178.63;;;19.54;93.99
69772;BME280;57046;45.988;18.664;2023-06-10T02:17:42;100159.78;;;19.42;93.80
69772;BME280;57046;45.988;18.664;2023-06-10T02:20:08;100180.16;;;19.44;94.61
69772;BME280;57046;45.988;18.664;2023-06-10T02:22:33;100156.19;;;19.30;94.17
69772;BME280;57046;45.988;18.664;2023-06-10T02:24:59;100176.97;;;19.39;94.66
69772;BME280;57046;45.988;18.664;2023-06-10T02:27:24;100178.47;;;19.22;96.15
69772;BME280;57046;45.988;18.664;2023-06-10T02:29:50;100187.81;;;19.14;97.23
69772;BME280;57046;45.988;18.664;2023-06-10T02:32:15;100179.59;;;19.10;96.38
69772;BME280;57046;45.988;18.664;2023-06-10T02:34:41;100172.94;;;19.08;97.15
69772;BME280;57046;45.988;18.664;2023-06-10T02:37:06;100176.06;;;19.10;96.84
69772;BME280;57046;45.988;18.664;2023-06-10T02:39:31;100174.88;;;19.07;97.19
69772;BME280;57046;45.988;18.664;2023-06-10T02:41:57;100177.19;;;19.05;97.09
69772;BME280;57046;45.988;18.664;2023-06-10T02:44:22;100173.72;;;19.08;96.47
69772;BME280;57046;45.988;18.664;2023-06-10T02:46:47;100170.16;;;19.01;95.79
69772;BME280;57046;45.988;18.664;2023-06-10T02:49:13;100173.69;;;19.05;95.74
69772;BME280;57046;45.988;18.664;2023-06-10T02:51:38;100180.34;;;19.07;94.56
69772;BME280;57046;45.988;18.664;2023-06-10T02:54:04;100192.91;;;19.12;95.00
69772;BME280;57046;45.988;18.664;2023-06-10T02:56:29;100169.72;;;18.95;95.46
69772;BME280;57046;45.988;18.664;2023-06-10T02:58:55;100177.94;;;18.99;96.06
69772;BME280;57046;45.988;18.664;2023-06-10T03:01:21;100190.50;;;19.03;95.77
69772;BME280;57046;45.988;18.664;2023-06-10T03:03:46;100203.84;;;19.05;95.06
69772;BME280;57046;45.988;18.664;2023-06-10T03:06:12;100189.25;;;18.90;96.33
69772;BME280;57046;45.988;18.664;2023-06-10T03:08:39;100197.09;;;18.95;95.62
69772;BME280;57046;45.988;18.664;2023-06-10T03:11:04;100204.56;;;18.98;96.03
69772;BME280;57046;45.988;18.664;2023-06-10T03:13:30;100201.78;;;18.91;96.15
69772;BME280;57046;45.988;18.664;2023-06-10T03:15:55;100210.41;;;18.93;95.43
69772;BME280;57046;45.988;18.664;2023-06-10T03:18:21;100221.72;;;18.92;95.45
69772;BME280;57046;45.988;18.664;2023-06-10T03:20:46;100219.44;;;18.97;95.67
69772;BME280;57046;45.988;18.664;2023-06-10T03:23:11;100217.03;;;18.92;95.75
69772;BME280;57046;45.988;18.664;2023-06-10T03:25:37;100221.69;;;18.88;96.12
69772;BME280;57046;45.988;18.664;2023-06-10T03:28:02;100217.81;;;18.89;96.49
69772;BME280;57046;45.988;18.664;2023-06-10T03:30:28;100211.50;;;18.85;97.20
69772;BME280;57046;45.988;18.664;2023-06-10T03:32:53;100225.22;;;18.89;97.67
69772;BME280;57046;45.988;18.664;2023-06-10T03:35:19;100220.94;;;18.88;97.63
69772;BME280;57046;45.988;18.664;2023-06-10T03:37:44;100222.50;;;18.89;98.52
69772;BME280;57046;45.988;18.664;2023-06-10T03:40:10;100222.88;;;18.87;98.58
69772;BME280;57046;45.988;18.664;2023-06-10T03:42:35;100229.94;;;18.92;99.45
69772;BME280;57046;45.988;18.664;2023-06-10T03:45:02;100226.81;;;18.90;100.00
69772;BME280;57046;45.988;18.664;2023-06-10T03:47:33;100203.63;;;18.73;100.00
69772;BME280;57046;45.988;18.664;2023-06-10T03:49:59;100235.06;;;18.93;100.00
69772;BME280;57046;45.988;18.664;2023-06-10T03:52:24;100230.72;;;18.92;100.00
69772;BME280;57046;45.988;18.664;2023-06-10T03:54:50;100228.00;;;18.92;100.00
69772;BME280;57046;45.988;18.664;2023-06-10T03:57:15;100236.22;;;18.92;100.00
69772;BME280;57046;45.988;18.664;2023-06-10T03:59:40;100230.34;;;18.90;100.00
69772;BME280;57046;45.988;18.664;2023-06-10T04:02:06;100239.78;;;19.00;100.00
69772;BME280;57046;45.988;18.664;2023-06-10T04:04:31;100232.00;;;19.05;100.00
69772;BME280;57046;45.988;18.664;2023-06-10T04:06:56;100207.28;;;18.91;100.00
69772;BME280;57046;45.988;18.664;2023-06-10T04:09:22;100202.97;;;18.94;100.00
69772;BME280;57046;45.988;18.664;2023-06-10T04:11:47;100231.25;;;19.08;100.00
69772;BME280;57046;45.988;18.664;2023-06-10T04:14:12;100236.75;;;19.12;100.00
69772;BME280;57046;45.988;18.664;2023-06-10T04:16:38;100223.75;;;19.05;100.00
69772;BME280;57046;45.988;18.664;2023-06-10T04:19:03;100231.28;;;19.12;100.00
69772;BME280;57046;45.988;18.664;2023-06-10T04:21:28;100232.72;;;18.99;100.00
69772;BME280;57046;45.988;18.664;2023-06-10T04:23:54;100232.38;;;19.04;100.00
69772;BME280;57046;45.988;18.664;2023-06-10T04:26:19;100237.78;;;18.93;100.00
69772;BME280;57046;45.988;18.664;2023-06-10T04:28:44;100229.94;;;18.92;100.00
69772;BME280;57046;45.988;18.664;2023-06-10T04:31:10;100227.63;;;18.94;100.00
69772;BME280;57046;45.988;18.664;2023-06-10T04:33:35;100237.06;;;19.03;100.00
69772;BME280;57046;45.988;18.664;2023-06-10T04:36:01;100234.41;;;19.17;100.00
69772;BME280;57046;45.988;18.664;2023-06-10T04:38:26;100231.31;;;19.22;100.00
69772;BME280;57046;45.988;18.664;2023-06-10T04:40:52;100234.88;;;19.33;100.00
69772;BME280;57046;45.988;18.664;2023-06-10T04:43:17;100231.78;;;19.35;100.00
69772;BME280;57046;45.988;18.664;2023-06-10T04:45:43;100223.63;;;19.42;100.00
69772;BME280;57046;45.988;18.664;2023-06-10T04:48:08;100220.03;;;19.35;100.00
69772;BME280;57046;45.988;18.664;2023-06-10T04:50:33;100217.66;;;19.33;100.00
69772;BME280;57046;45.988;18.664;2023-06-10T04:52:59;100223.22;;;19.44;100.00
69772;BME280;57046;45.988;18.664;2023-06-10T04:55:24;100216.91;;;19.40;100.00
69772;BME280;57046;45.988;18.664;2023-06-10T04:57:49;100227.56;;;19.48;100.00
69772;BME280;57046;45.988;18.664;2023-06-10T05:00:15;100233.41;;;19.47;100.00
69772;BME280;57046;45.988;18.664;2023-06-10T05:02:40;100226.41;;;19.60;100.00
69772;BME280;57046;45.988;18.664;2023-06-10T05:05:06;100227.59;;;19.55;100.00
69772;BME280;57046;45.988;18.664;2023-06-10T05:07:31;100222.53;;;19.64;100.00
69772;BME280;57046;45.988;18.664;2023-06-10T05:09:57;100224.91;;;19.69;100.00
69772;BME280;57046;45.988;18.664;2023-06-10T05:12:22;100223.38;;;19.83;100.00
69772;BME280;57046;45.988;18.664;2023-06-10T05:14:47;100219.00;;;19.67;100.00
69772;BME280;57046;45.988;18.664;2023-06-10T05:17:13;100228.09;;;19.86;100.00
69772;BME280;57046;45.988;18.664;2023-06-10T05:19:38;100228.09;;;19.93;100.00
69772;BME280;57046;45.988;18.664;2023-06-10T05:22:04;100235.16;;;20.04;100.00
69772;BME280;57046;45.988;18.664;2023-06-10T05:24:29;100230.44;;;19.98;100.00
69772;BME280;57046;45.988;18.664;2023-06-10T05:26:55;100204.19;;;19.93;100.00
69772;BME280;57046;45.988;18.664;2023-06-10T05:29:20;100232.44;;;20.18;100.00
69772;BME280;57046;45.988;18.664;2023-06-10T05:31:45;100234.47;;;20.32;100.00
69772;BME280;57046;45.988;18.664;2023-06-10T05:34:11;100238.00;;;20.40;100.00
69772;BME280;57046;45.988;18.664;2023-06-10T05:36:36;100234.47;;;20.39;100.00
69772;BME280;57046;45.988;18.664;2023-06-10T05:39:02;100231.34;;;20.55;100.00
69772;BME280;57046;45.988;18.664;2023-06-10T05:41:28;100223.50;;;20.60;100.00
69772;BME280;57046;45.988;18.664;2023-06-10T05:43:53;100230.16;;;20.66;100.00
69772;BME280;57046;45.988;18.664;2023-06-10T05:46:19;100225.44;;;20.67;100.00
69772;BME280;57046;45.988;18.664;2023-06-10T05:48:45;100240.34;;;20.87;100.00
69772;BME280;57046;45.988;18.664;2023-06-10T05:51:10;100232.47;;;20.82;100.00
69772;BME280;57046;45.988;18.664;2023-06-10T05:53:36;100243.88;;;20.95;100.00
69772;BME280;57046;45.988;18.664;2023-06-10T05:56:01;100240.34;;;20.91;100.00
69772;BME280;57046;45.988;18.664;2023-06-10T05:58:26;100246.19;;;21.03;100.00
69772;BME280;57046;45.988;18.664;2023-06-10T06:00:52;100227.75;;;21.00;100.00
69772;BME280;57046;45.988;18.664;2023-06-10T06:03:17;100246.19;;;21.17;100.00
69772;BME280;57046;45.988;18.664;2023-06-10T06:05:43;100249.31;;;21.23;100.00
69772;BME280;57046;45.988;18.664;2023-06-10T06:08:09;100248.13;;;21.27;99.75
69772;BME280;57046;45.988;18.664;2023-06-10T06:10:35;100248.50;;;21.37;99.83
69772;BME280;57046;45.988;18.664;2023-06-10T06:13:00;100242.22;;;21.43;99.05
69772;BME280;57046;45.988;18.664;2023-06-10T06:15:26;100245.31;;;21.52;99.04
69772;BME280;57046;45.988;18.664;2023-06-10T06:17:51;100243.72;;;21.58;98.36
69772;BME280;57046;45.988;18.664;2023-06-10T06:20:17;100241.72;;;21.66;98.69
69772;BME280;57046;45.988;18.664;2023-06-10T06:22:42;100243.66;;;21.72;97.77
69772;BME280;57046;45.988;18.664;2023-06-10T06:25:08;100250.78;;;21.59;97.58
69772;BME280;57046;45.988;18.664;2023-06-10T06:27:33;100244.81;;;21.75;96.81
69772;BME280;57046;45.988;18.664;2023-06-10T06:29:58;100247.53;;;21.82;96.52
69772;BME280;57046;45.988;18.664;2023-06-10T06:32:25;100247.13;;;21.87;96.47
69772;BME280;57046;45.988;18.664;2023-06-10T06:34:50;100241.66;;;21.80;95.99
69772;BME280;57046;45.988;18.664;2023-06-10T06:37:15;100241.25;;;21.81;95.70
69772;BME280;57046;45.988;18.664;2023-06-10T06:39:41;100239.19;;;22.03;96.29
69772;BME280;57046;45.988;18.664;2023-06-10T06:42:06;100255.19;;;22.22;96.05
69772;BME280;57046;45.988;18.664;2023-06-10T06:44:32;100253.19;;;22.26;95.52
69772;BME280;57046;45.988;18.664;2023-06-10T06:46:57;100244.88;;;22.37;93.65
69772;BME280;57046;45.988;18.664;2023-06-10T06:49:22;100248.81;;;22.36;92.94
69772;BME280;57046;45.988;18.664;2023-06-10T06:51:48;100247.31;;;22.28;94.63
69772;BME280;57046;45.988;18.664;2023-06-10T06:54:13;100247.50;;;22.55;97.25
69772;BME280;57046;45.988;18.664;2023-06-10T06:56:38;100249.13;;;22.49;93.72
69772;BME280;57046;45.988;18.664;2023-06-10T06:59:27;100255.28;;;22.67;95.53
69772;BME280;57046;45.988;18.664;2023-06-10T07:01:52;100251.16;;;22.89;99.01
69772;BME280;57046;45.988;18.664;2023-06-10T07:04:17;100249.56;;;22.92;94.55
69772;BME280;57046;45.988;18.664;2023-06-10T07:06:43;100246.81;;;22.92;93.29
69772;BME280;57046;45.988;18.664;2023-06-10T07:09:08;100241.09;;;22.72;91.39
69772;BME280;57046;45.988;18.664;2023-06-10T07:11:34;100252.19;;;22.58;90.92
69772;BME280;57046;45.988;18.664;2023-06-10T07:14:01;100250.13;;;22.72;91.99
69772;BME280;57046;45.988;18.664;2023-06-10T07:16:26;100250.78;;;22.87;91.47
69772;BME280;57046;45.988;18.664;2023-06-10T07:18:54;100245.13;;;23.01;94.12
69772;BME280;57046;45.988;18.664;2023-06-10T07:21:19;100244.66;;;23.10;90.10
69772;BME280;57046;45.988;18.664;2023-06-10T07:23:46;100236.34;;;23.13;90.87
69772;BME280;57046;45.988;18.664;2023-06-10T07:26:12;100245.22;;;23.28;93.17
69772;BME280;57046;45.988;18.664;2023-06-10T07:28:37;100246.44;;;23.27;89.34
69772;BME280;57046;45.988;18.664;2023-06-10T07:31:03;100242.41;;;23.35;90.88
69772;BME280;57046;45.988;18.664;2023-06-10T07:33:29;100241.56;;;23.42;90.06
69772;BME280;57046;45.988;18.664;2023-06-10T07:35:54;100239.59;;;23.42;89.70
69772;BME280;57046;45.988;18.664;2023-06-10T07:38:19;100247.88;;;23.42;89.04
69772;BME280;57046;45.988;18.664;2023-06-10T07:40:45;100242.16;;;23.22;85.65
69772;BME280;57046;45.988;18.664;2023-06-10T07:43:11;100238.41;;;23.43;85.26
69772;BME280;57046;45.988;18.664;2023-06-10T07:45:41;100244.84;;;23.63;85.24
69772;BME280;57046;45.988;18.664;2023-06-10T07:48:07;100236.81;;;23.76;85.34
69772;BME280;57046;45.988;18.664;2023-06-10T07:50:35;100207.28;;;23.39;83.95
69772;BME280;57046;45.988;18.664;2023-06-10T07:53:01;100247.06;;;23.75;83.26
69772;BME280;57046;45.988;18.664;2023-06-10T07:55:27;100245.78;;;23.83;84.81
69772;BME280;57046;45.988;18.664;2023-06-10T07:57:53;100239.38;;;23.90;83.49
69772;BME280;57046;45.988;18.664;2023-06-10T08:00:19;100242.34;;;24.03;83.23
69772;BME280;57046;45.988;18.664;2023-06-10T08:02:45;100245.38;;;24.15;83.66
69772;BME280;57046;45.988;18.664;2023-06-10T08:05:10;100242.00;;;24.27;82.65
69772;BME280;57046;45.988;18.664;2023-06-10T08:07:36;100235.66;;;24.30;81.26
69772;BME280;57046;45.988;18.664;2023-06-10T08:10:02;100229.94;;;24.18;80.52
69772;BME280;57046;45.988;18.664;2023-06-10T08:12:29;100231.03;;;24.47;83.07
69772;BME280;57046;45.988;18.664;2023-06-10T08:14:54;100236.84;;;24.56;79.99
69772;BME280;57046;45.988;18.664;2023-06-10T08:17:20;100237.53;;;24.60;79.99
69772;BME280;57046;45.988;18.664;2023-06-10T08:19:45;100223.44;;;24.55;78.32
69772;BME280;57046;45.988;18.664;2023-06-10T08:22:13;100229.91;;;24.68;79.71
69772;BME280;57046;45.988;18.664;2023-06-10T08:24:42;100239.28;;;24.51;76.53
69772;BME280;57046;45.988;18.664;2023-06-10T08:27:08;100230.94;;;24.54;77.11
69772;BME280;57046;45.988;18.664;2023-06-10T08:29:33;100226.63;;;24.76;77.68
69772;BME280;57046;45.988;18.664;2023-06-10T08:32:01;100232.03;;;24.83;77.21
69772;BME280;57046;45.988;18.664;2023-06-10T08:34:27;100223.41;;;25.01;75.81
69772;BME280;57046;45.988;18.664;2023-06-10T08:36:52;100224.56;;;25.04;74.84
69772;BME280;57046;45.988;18.664;2023-06-10T08:39:19;100224.28;;;25.18;75.02
69772;BME280;57046;45.988;18.664;2023-06-10T08:44:35;100218.75;;;25.18;71.23
69772;BME280;57046;45.988;18.664;2023-06-10T08:47:13;100219.81;;;25.44;75.07
69772;BME280;57046;45.988;18.664;2023-06-10T08:49:43;100213.66;;;25.56;73.02
69772;BME280;57046;45.988;18.664;2023-06-10T08:52:13;100227.16;;;25.54;70.06
69772;BME280;57046;45.988;18.664;2023-06-10T08:54:43;100223.53;;;25.37;69.46
69772;BME280;57046;45.988;18.664;2023-06-10T08:57:12;100222.09;;;25.29;68.72
69772;BME280;57046;45.988;18.664;2023-06-10T09:05:48;100216.13;;;25.70;70.45
69772;BME280;57046;45.988;18.664;2023-06-10T09:08:15;100218.03;;;25.73;67.06
69772;BME280;57046;45.988;18.664;2023-06-10T09:10:41;100207.19;;;25.98;68.39
69772;BME280;57046;45.988;18.664;2023-06-10T09:15:41;100205.34;;;26.27;67.06
69772;BME280;57046;45.988;18.664;2023-06-10T09:20:43;100194.59;;;26.62;68.90
69772;BME280;57046;45.988;18.664;2023-06-10T09:25:44;100198.06;;;27.11;63.28
69772;BME280;57046;45.988;18.664;2023-06-10T09:28:13;100181.22;;;27.18;63.42
69772;BME280;57046;45.988;18.664;2023-06-10T09:30:39;100178.13;;;27.28;59.77
69772;BME280;57046;45.988;18.664;2023-06-10T09:33:11;100175.22;;;27.48;62.26
69772;BME280;57046;45.988;18.664;2023-06-10T10:50:29;100127.75;;;27.93;53.29
69772;BME280;57046;45.988;18.664;2023-06-10T10:53:40;100131.28;;;28.31;50.43
69772;BME280;57046;45.988;18.664;2023-06-10T11:01:44;100127.97;;;28.71;48.63
69772;BME280;57046;45.988;18.664;2023-06-10T11:04:10;100124.28;;;28.40;47.78
69772;BME280;57046;45.988;18.664;2023-06-10T11:06:35;100122.63;;;28.29;49.11
69772;BME280;57046;45.988;18.664;2023-06-10T11:09:27;100122.47;;;28.80;48.24
69772;BME280;57046;45.988;18.664;2023-06-10T11:11:52;100107.78;;;29.01;45.81
69772;BME280;57046;45.988;18.664;2023-06-10T11:14:29;100113.31;;;29.23;45.86
69772;BME280;57046;45.988;18.664;2023-06-10T11:16:59;100071.53;;;28.92;46.79
69772;BME280;57046;45.988;18.664;2023-06-10T11:19:37;100112.03;;;28.71;48.35
69772;BME280;57046;45.988;18.664;2023-06-10T11:22:07;100106.84;;;28.61;49.47
69772;BME280;57046;45.988;18.664;2023-06-10T11:24:32;100105.78;;;28.46;49.72
69772;BME280;57046;45.988;18.664;2023-06-10T11:27:18;100111.81;;;28.31;50.05
69772;BME280;57046;45.988;18.664;2023-06-10T11:32:21;100105.41;;;28.56;48.70
69772;BME280;57046;45.988;18.664;2023-06-10T11:34:52;100105.84;;;28.55;49.16
69772;BME280;57046;45.988;18.664;2023-06-10T11:37:18;100097.25;;;28.62;47.81
69772;BME280;57046;45.988;18.664;2023-06-10T11:39:43;100090.84;;;28.52;48.22
69772;BME280;57046;45.988;18.664;2023-06-10T11:42:10;100086.72;;;28.57;48.02
69772;BME280;57046;45.988;18.664;2023-06-10T11:44:36;100094.59;;;28.37;49.33
69772;BME280;57046;45.988;18.664;2023-06-10T11:47:01;100067.75;;;27.83;48.67
69772;BME280;57046;45.988;18.664;2023-06-10T11:49:26;100093.44;;;27.87;50.78
69772;BME280;57046;45.988;18.664;2023-06-10T11:51:51;100074.22;;;27.67;51.44
69772;BME280;57046;45.988;18.664;2023-06-10T11:54:17;100096.09;;;27.91;50.40
69772;BME280;57046;45.988;18.664;2023-06-10T11:56:43;100095.19;;;27.94;50.70
69772;BME280;57046;45.988;18.664;2023-06-10T11:59:08;100087.63;;;27.94;48.96
69772;BME280;57046;45.988;18.664;2023-06-10T12:01:36;100096.75;;;27.95;47.05
69772;BME280;57046;45.988;18.664;2023-06-10T12:04:04;100068.53;;;27.83;46.53
69772;BME280;57046;45.988;18.664;2023-06-10T12:06:40;100087.03;;;28.24;46.96
69772;BME280;57046;45.988;18.664;2023-06-10T12:09:15;100073.91;;;28.59;47.91
69772;BME280;57046;45.988;18.664;2023-06-10T12:11:42;100075.81;;;28.84;42.85
69772;BME280;57046;45.988;18.664;2023-06-10T12:14:08;100069.25;;;29.00;41.69
69772;BME280;57046;45.988;18.664;2023-06-10T12:16:34;100071.38;;;29.17;43.68
69772;BME280;57046;45.988;18.664;2023-06-10T12:19:04;100069.00;;;29.28;41.98
69772;BME280;57046;45.988;18.664;2023-06-10T12:21:31;100061.81;;;29.58;45.75
69772;BME280;57046;45.988;18.664;2023-06-10T12:24:15;100060.38;;;29.85;42.21
69772;BME280;57046;45.988;18.664;2023-06-10T12:26:42;100059.19;;;30.04;42.08
69772;BME280;57046;45.988;18.664;2023-06-10T12:29:17;100059.66;;;30.20;45.22
69772;BME280;57046;45.988;18.664;2023-06-10T12:32:15;100057.50;;;30.34;48.69
69772;BME280;57046;45.988;18.664;2023-06-10T12:34:41;100060.41;;;30.12;48.88
69772;BME280;57046;45.988;18.664;2023-06-10T12:37:10;100048.56;;;29.71;49.61
69772;BME280;57046;45.988;18.664;2023-06-10T12:39:36;100060.69;;;29.47;49.52
69772;BME280;57046;45.988;18.664;2023-06-10T12:42:02;100043.16;;;29.37;49.53
69772;BME280;57046;45.988;18.664;2023-06-10T12:44:32;100059.50;;;29.26;50.05
69772;BME280;57046;45.988;18.664;2023-06-10T12:46:58;100049.81;;;29.40;49.95
69772;BME280;57046;45.988;18.664;2023-06-10T12:49:24;100050.03;;;29.23;51.41
69772;BME280;57046;45.988;18.664;2023-06-10T12:51:49;100060.59;;;28.98;53.89
69772;BME280;57046;45.988;18.664;2023-06-10T12:54:14;100062.56;;;28.66;53.39
69772;BME280;57046;45.988;18.664;2023-06-10T12:56:40;100058.91;;;28.57;54.88
69772;BME280;57046;45.988;18.664;2023-06-10T12:59:05;100064.47;;;28.57;55.58
69772;BME280;57046;45.988;18.664;2023-06-10T13:01:30;100058.06;;;28.47;56.65
69772;BME280;57046;45.988;18.664;2023-06-10T13:03:56;100052.63;;;28.09;59.06
69772;BME280;57046;45.988;18.664;2023-06-10T13:06:21;100063.72;;;27.97;61.93
69772;BME280;57046;45.988;18.664;2023-06-10T13:08:46;100066.47;;;27.75;65.66
69772;BME280;57046;45.988;18.664;2023-06-10T13:11:12;100074.44;;;27.35;68.61
69772;BME280;57046;45.988;18.664;2023-06-10T13:13:37;100048.63;;;26.97;69.16
69772;BME280;57046;45.988;18.664;2023-06-10T13:16:02;100056.91;;;26.55;71.53
69772;BME280;57046;45.988;18.664;2023-06-10T13:18:28;100059.94;;;26.32;68.91
69772;BME280;57046;45.988;18.664;2023-06-10T13:20:53;100055.00;;;26.07;70.93
69772;BME280;57046;45.988;18.664;2023-06-10T13:23:18;100052.81;;;26.31;69.64
69772;BME280;57046;45.988;18.664;2023-06-10T13:25:44;100064.31;;;26.46;67.80
69772;BME280;57046;45.988;18.664;2023-06-10T13:28:09;100059.78;;;26.23;68.33
69772;BME280;57046;45.988;18.664;2023-06-10T13:30:34;100055.69;;;26.11;67.73
69772;BME280;57046;45.988;18.664;2023-06-10T13:32:59;100030.19;;;25.55;69.93
69772;BME280;57046;45.988;18.664;2023-06-10T13:35:25;100047.38;;;25.47;68.72
69772;BME280;57046;45.988;18.664;2023-06-10T13:37:50;100048.81;;;25.35;68.49
69772;BME280;57046;45.988;18.664;2023-06-10T13:40:15;100047.44;;;25.43;66.89
69772;BME280;57046;45.988;18.664;2023-06-10T13:42:41;100048.91;;;25.31;68.15
69772;BME280;57046;45.988;18.664;2023-06-10T13:45:06;100049.03;;;25.08;70.60
69772;BME280;57046;45.988;18.664;2023-06-10T13:47:32;100055.78;;;25.07;72.50
69772;BME280;57046;45.988;18.664;2023-06-10T13:49:57;100081.16;;;25.02;73.08
69772;BME280;57046;45.988;18.664;2023-06-10T13:52:23;100080.69;;;25.07;73.00
69772;BME280;57046;45.988;18.664;2023-06-10T13:54:48;100074.31;;;25.26;71.69
69772;BME280;57046;45.988;18.664;2023-06-10T13:57:13;100077.19;;;25.03;73.23
69772;BME280;57046;45.988;18.664;2023-06-10T13:59:39;100081.75;;;24.94;75.66
69772;BME280;57046;45.988;18.664;2023-06-10T14:02:04;100096.09;;;24.65;80.24
69772;BME280;57046;45.988;18.664;2023-06-10T14:04:29;100100.56;;;24.36;83.16
69772;BME280;57046;45.988;18.664;2023-06-10T14:06:55;100099.50;;;24.30;80.84
69772;BME280;57046;45.988;18.664;2023-06-10T14:09:20;100104.19;;;24.33;80.90
69772;BME280;57046;45.988;18.664;2023-06-10T14:11:46;100098.56;;;24.60;80.08
69772;BME280;57046;45.988;18.664;2023-06-10T14:14:11;100099.50;;;24.30;77.12
69772;BME280;57046;45.988;18.664;2023-06-10T14:16:36;100086.69;;;23.93;77.52